createdAt,value
2023-01-28T00:02:09.352Z,8.20
2023-01-28T00:04:36.198Z,8.20
2023-01-28T00:07:03.027Z,8.20
2023-01-28T00:09:29.801Z,8.20
2023-01-28T00:11:56.588Z,8.20
2023-01-28T00:14:23.457Z,8.90
2023-01-28T00:16:50.252Z,8.20
2023-01-28T00:19:17.097Z,8.20
2023-01-28T00:21:43.863Z,8.20
2023-01-28T00:24:10.693Z,8.20
2023-01-28T00:26:37.544Z,8.20
2023-01-28T00:29:04.577Z,8.20
2023-01-28T00:31:31.528Z,8.20
2023-01-28T00:34:00.868Z,8.20
2023-01-28T00:36:27.752Z,8.20
2023-01-28T00:38:57.154Z,8.20
2023-01-28T00:41:25.934Z,8.30
2023-01-28T00:43:53.013Z,8.20
2023-01-28T00:46:23.624Z,8.20
2023-01-28T00:48:51.350Z,8.20
2023-01-28T00:51:20.699Z,8.20
2023-01-28T00:53:51.870Z,8.20
2023-01-28T00:56:19.635Z,8.20
2023-01-28T00:58:47.397Z,8.10
2023-01-28T01:01:26.085Z,8.10
2023-01-28T01:04:03.470Z,8.10
2023-01-28T01:06:40.603Z,8.10
2023-01-28T01:09:10.842Z,8.10
2023-01-28T01:11:37.685Z,8.10
2023-01-28T01:14:05.438Z,8.10
2023-01-28T01:16:33.473Z,8.10
2023-01-28T01:19:00.992Z,8.20
2023-01-28T01:21:29.892Z,8.10
2023-01-28T01:23:57.067Z,8.10
2023-01-28T01:26:25.281Z,8.10
2023-01-28T01:28:52.314Z,8.10
2023-01-28T01:31:21.154Z,8.20
2023-01-28T01:33:49.884Z,8.10
2023-01-28T01:36:19.633Z,8.10
2023-01-28T01:38:47.075Z,8.10
2023-01-28T01:41:31.741Z,8.00
2023-01-28T01:44:03.769Z,8.00
2023-01-28T01:46:38.549Z,8.00
2023-01-28T01:49:27.521Z,8.00
2023-01-28T01:52:02.403Z,8.00
2023-01-28T01:54:31.441Z,8.10
2023-01-28T01:57:00.867Z,8.00
2023-01-28T01:59:33.166Z,8.00
2023-01-28T02:02:07.112Z,8.00
2023-01-28T02:04:40.968Z,8.00
2023-01-28T02:07:10.017Z,8.00
2023-01-28T02:09:41.656Z,8.00
2023-01-28T02:12:17.237Z,8.00
2023-01-28T02:14:57.043Z,8.00
2023-01-28T02:17:24.361Z,8.00
2023-01-28T02:19:55.118Z,8.00
2023-01-28T02:22:27.508Z,7.90
2023-01-28T02:25:03.834Z,7.90
2023-01-28T02:27:39.881Z,7.90
2023-01-28T02:30:16.349Z,8.00
2023-01-28T02:33:00.787Z,8.00
2023-01-28T02:35:36.760Z,7.90
2023-01-28T02:38:16.384Z,7.90
2023-01-28T02:41:04.089Z,7.90
2023-01-28T02:43:31.162Z,7.90
2023-01-28T02:46:17.158Z,7.90
2023-01-28T02:48:44.169Z,7.80
2023-01-28T02:51:29.128Z,7.80
2023-01-28T02:54:05.590Z,7.80
2023-01-28T02:56:41.878Z,7.80
2023-01-28T02:59:46.061Z,7.80
2023-01-28T03:02:31.170Z,7.80
2023-01-28T03:05:26.471Z,7.80
2023-01-28T03:07:54.062Z,7.80
2023-01-28T03:10:25.382Z,7.80
2023-01-28T03:13:15.416Z,7.70
2023-01-28T03:16:06.868Z,7.80
2023-01-28T03:19:02.275Z,7.80
2023-01-28T03:21:55.407Z,7.80
2023-01-28T03:25:03.339Z,7.80
2023-01-28T03:28:01.402Z,7.80
2023-01-28T03:31:19.077Z,7.80
2023-01-28T03:34:10.386Z,7.80
2023-01-28T03:36:55.814Z,7.80
2023-01-28T03:39:45.421Z,7.80
2023-01-28T03:42:14.783Z,7.80
2023-01-28T03:45:14.800Z,7.80
2023-01-28T03:47:43.268Z,7.80
2023-01-28T03:50:11.600Z,7.80
2023-01-28T03:52:51.157Z,7.80
2023-01-28T03:55:29.006Z,7.80
2023-01-28T03:57:55.798Z,7.80
2023-01-28T04:00:23.347Z,7.80
2023-01-28T04:02:50.296Z,7.80
2023-01-28T04:05:20.660Z,7.80
2023-01-28T04:07:51.613Z,7.70
2023-01-28T04:10:39.878Z,7.80
2023-01-28T04:13:18.309Z,7.70
2023-01-28T04:15:45.717Z,7.70
2023-01-28T04:18:14.442Z,7.70
2023-01-28T04:20:41.671Z,7.70
2023-01-28T04:23:08.710Z,7.70
2023-01-28T04:25:35.615Z,7.70
2023-01-28T04:28:05.948Z,7.70
2023-01-28T04:30:32.759Z,7.70
2023-01-28T04:33:14.821Z,7.70
2023-01-28T04:36:02.023Z,6.50
2023-01-28T04:38:55.105Z,7.70
2023-01-28T04:41:48.303Z,7.70
2023-01-28T04:44:29.312Z,7.70
2023-01-28T04:47:16.348Z,7.70
2023-01-28T04:49:57.748Z,7.70
2023-01-28T04:52:47.347Z,7.70
2023-01-28T04:55:19.133Z,7.80
2023-01-28T04:57:48.775Z,7.80
2023-01-28T05:00:16.305Z,7.70
2023-01-28T05:02:43.296Z,7.70
2023-01-28T05:05:10.171Z,7.80
2023-01-28T05:07:58.438Z,7.80
2023-01-28T05:10:26.500Z,7.80
2023-01-28T05:12:54.256Z,7.80
2023-01-28T05:15:21.728Z,5.00
2023-01-28T05:17:54.383Z,7.80
2023-01-28T05:20:22.849Z,7.80
2023-01-28T05:22:50.313Z,7.80
2023-01-28T05:25:22.619Z,7.80
2023-01-28T05:27:53.065Z,7.80
2023-01-28T05:30:21.217Z,7.80
2023-01-28T05:32:48.912Z,7.80
2023-01-28T05:35:20.005Z,7.80
2023-01-28T05:37:47.168Z,7.80
2023-01-28T05:40:14.953Z,7.70
2023-01-28T05:42:42.279Z,7.80
2023-01-28T05:45:23.589Z,7.80
2023-01-28T05:48:02.890Z,7.80
2023-01-28T05:50:55.869Z,7.70
2023-01-28T05:53:32.554Z,7.70
2023-01-28T05:55:59.482Z,7.70
2023-01-28T05:58:30.880Z,7.70
2023-01-28T06:00:59.112Z,7.70
2023-01-28T06:03:31.699Z,7.60
2023-01-28T06:05:58.597Z,7.70
2023-01-28T06:08:25.484Z,7.60
2023-01-28T06:10:52.764Z,7.60
2023-01-28T06:13:21.401Z,7.60
2023-01-28T06:16:11.842Z,7.60
2023-01-28T06:18:57.843Z,7.60
2023-01-28T06:21:24.649Z,7.60
2023-01-28T06:23:51.464Z,7.60
2023-01-28T06:26:18.797Z,7.60
2023-01-28T06:28:46.715Z,7.60
2023-01-28T06:31:13.634Z,8.00
2023-01-28T06:33:40.418Z,7.60
2023-01-28T06:36:07.753Z,7.60
2023-01-28T06:38:35.098Z,9.50
2023-01-28T06:41:01.880Z,7.60
2023-01-28T06:43:30.626Z,7.60
2023-01-28T06:45:58.117Z,7.60
2023-01-28T06:48:26.152Z,7.60
2023-01-28T06:50:53.650Z,7.60
2023-01-28T06:53:21.507Z,7.60
2023-01-28T06:55:48.921Z,7.60
2023-01-28T06:58:15.702Z,7.60
2023-01-28T07:00:42.455Z,7.60
2023-01-28T07:03:09.360Z,7.60
2023-01-28T07:05:36.412Z,7.60
2023-01-28T07:08:03.369Z,7.60
2023-01-28T07:10:31.306Z,7.60
2023-01-28T07:12:58.094Z,7.60
2023-01-28T07:15:24.938Z,7.60
2023-01-28T07:17:52.054Z,7.60
2023-01-28T07:20:19.148Z,7.60
2023-01-28T07:22:46.760Z,7.60
2023-01-28T07:25:15.073Z,7.60
2023-01-28T07:27:50.611Z,7.60
2023-01-28T07:30:19.001Z,7.70
2023-01-28T07:32:46.734Z,7.70
2023-01-28T07:35:13.952Z,7.60
2023-01-28T07:37:40.854Z,7.60
2023-01-28T07:40:08.610Z,7.70
2023-01-28T07:42:35.472Z,7.60
2023-01-28T07:45:06.566Z,7.70
2023-01-28T07:47:33.670Z,7.70
2023-01-28T07:50:00.664Z,7.70
2023-01-28T07:52:27.503Z,7.70
2023-01-28T07:54:54.283Z,7.70
2023-01-28T07:57:23.252Z,7.70
2023-01-28T07:59:51.042Z,7.70
2023-01-28T08:02:18.447Z,7.70
2023-01-28T08:04:46.603Z,7.80
2023-01-28T08:07:13.460Z,7.80
2023-01-28T08:09:40.275Z,7.80
2023-01-28T08:12:08.214Z,7.80
2023-01-28T08:14:35.263Z,7.80
2023-01-28T08:17:02.332Z,7.90
2023-01-28T08:19:29.141Z,7.80
2023-01-28T08:21:55.895Z,7.90
2023-01-28T08:24:22.764Z,7.90
2023-01-28T08:26:49.881Z,7.90
2023-01-28T08:29:16.694Z,7.90
2023-01-28T08:31:43.454Z,7.90
2023-01-28T08:34:10.379Z,9.40
2023-01-28T08:36:37.151Z,10.30
2023-01-28T08:39:04.441Z,8.00
2023-01-28T08:41:31.451Z,8.00
2023-01-28T08:43:59.064Z,8.00
2023-01-28T08:46:26.110Z,8.00
2023-01-28T08:48:52.934Z,8.10
2023-01-28T08:51:19.804Z,5.70
2023-01-28T08:53:46.680Z,8.00
2023-01-28T08:56:14.381Z,8.00
2023-01-28T08:58:41.717Z,8.00
2023-01-28T09:01:08.581Z,8.10
2023-01-28T09:03:36.186Z,8.40
2023-01-28T09:06:04.974Z,8.10
2023-01-28T09:08:32.297Z,8.10
2023-01-28T09:11:00.229Z,8.10
2023-01-28T09:13:27.851Z,8.10
2023-01-28T09:15:54.753Z,8.10
2023-01-28T09:18:21.647Z,8.10
2023-01-28T09:20:48.441Z,8.10
2023-01-28T09:23:15.643Z,8.50
2023-01-28T09:25:42.506Z,8.10
2023-01-28T09:28:09.440Z,8.10
2023-01-28T09:30:38.000Z,8.10
2023-01-28T09:33:05.848Z,8.10
2023-01-28T09:35:33.836Z,8.10
2023-01-28T09:38:00.684Z,8.10
2023-01-28T09:40:33.005Z,8.10
2023-01-28T09:43:07.849Z,8.10
2023-01-28T09:45:42.924Z,8.20
2023-01-28T09:48:21.633Z,10.50
2023-01-28T09:50:54.729Z,8.20
2023-01-28T09:53:36.818Z,8.30
2023-01-28T09:56:10.001Z,8.30
2023-01-28T09:58:36.875Z,8.30
2023-01-28T10:01:21.828Z,8.40
2023-01-28T10:04:18.037Z,8.40
2023-01-28T10:07:11.508Z,8.40
2023-01-28T10:10:01.093Z,8.50
2023-01-28T10:12:36.607Z,8.50
2023-01-28T10:15:09.671Z,8.40
2023-01-28T10:17:42.235Z,8.50
2023-01-28T10:20:11.912Z,8.50
2023-01-28T10:22:54.501Z,8.50
2023-01-28T10:25:24.261Z,8.60
2023-01-28T10:27:52.166Z,8.60
2023-01-28T10:30:28.174Z,8.60
2023-01-28T10:33:24.024Z,8.70
2023-01-28T10:35:51.044Z,8.70
2023-01-28T10:38:22.067Z,8.70
2023-01-28T10:40:49.856Z,8.80
2023-01-28T10:43:20.789Z,8.80
2023-01-28T10:46:16.500Z,8.80
2023-01-28T10:48:47.966Z,8.80
2023-01-28T10:51:15.495Z,8.90
2023-01-28T10:53:43.430Z,8.90
2023-01-28T10:56:17.362Z,9.00
2023-01-28T10:58:58.777Z,8.90
2023-01-28T11:01:26.351Z,9.00
2023-01-28T11:03:58.467Z,9.00
2023-01-28T11:06:29.563Z,9.00
2023-01-28T11:08:56.960Z,9.00
2023-01-28T11:11:28.082Z,9.10
2023-01-28T11:13:58.415Z,9.10
2023-01-28T11:16:26.356Z,9.10
2023-01-28T11:19:05.285Z,9.20
2023-01-28T11:21:34.805Z,9.20
2023-01-28T11:24:14.213Z,9.20
2023-01-28T11:26:45.706Z,9.20
2023-01-28T11:29:24.551Z,9.30
2023-01-28T11:31:51.724Z,9.30
2023-01-28T11:34:20.171Z,9.30
2023-01-28T11:37:04.251Z,9.40
2023-01-28T11:39:31.429Z,9.40
2023-01-28T11:42:19.406Z,9.40
2023-01-28T11:44:47.388Z,9.40
2023-01-28T11:47:38.335Z,9.40
2023-01-28T11:50:24.555Z,9.50
2023-01-28T11:53:06.791Z,9.40
2023-01-28T11:55:59.482Z,9.40
2023-01-28T11:58:43.279Z,9.40
2023-01-28T12:01:20.836Z,9.50
2023-01-28T12:03:47.861Z,9.50
2023-01-28T12:06:40.131Z,9.50
2023-01-28T12:09:39.976Z,9.50
2023-01-28T12:12:40.687Z,9.50
2023-01-28T12:15:49.998Z,9.50
2023-01-28T12:18:31.386Z,9.50
2023-01-28T12:21:08.276Z,9.50
2023-01-28T12:23:38.496Z,9.50
2023-01-28T12:26:38.004Z,9.50
2023-01-28T12:29:18.300Z,9.40
2023-01-28T12:32:22.851Z,9.80
2023-01-28T12:34:59.157Z,9.40
2023-01-28T12:37:37.673Z,9.40
2023-01-28T12:40:26.387Z,9.30
2023-01-28T12:43:01.354Z,9.30
2023-01-28T12:45:51.812Z,9.30
2023-01-28T12:48:25.681Z,9.20
2023-01-28T12:51:16.514Z,9.10
2023-01-28T12:54:06.058Z,9.10
2023-01-28T12:56:40.667Z,9.00
2023-01-28T12:59:14.638Z,9.00
2023-01-28T13:01:54.124Z,8.90
2023-01-28T13:04:39.982Z,9.00
2023-01-28T13:07:15.750Z,8.90
2023-01-28T13:09:58.758Z,8.90
2023-01-28T13:12:26.337Z,8.90
2023-01-28T13:14:54.318Z,8.90
2023-01-28T13:17:32.551Z,8.90
2023-01-28T13:20:00.080Z,8.90
2023-01-28T13:22:36.704Z,8.90
2023-01-28T13:25:24.334Z,8.90
2023-01-28T13:28:25.512Z,8.90
2023-01-28T13:31:00.238Z,8.90
2023-01-28T13:33:33.309Z,8.90
2023-01-28T13:36:10.053Z,8.80
2023-01-28T13:38:37.284Z,8.80
2023-01-28T13:41:07.180Z,8.70
2023-01-28T13:43:33.964Z,8.70
2023-01-28T13:46:04.278Z,8.80
2023-01-28T13:48:46.245Z,8.60
2023-01-28T13:51:26.420Z,8.60
2023-01-28T13:53:59.672Z,8.50
2023-01-28T13:56:31.187Z,8.50
2023-01-28T13:59:09.499Z,8.90
2023-01-28T14:01:57.726Z,8.50
2023-01-28T14:04:38.811Z,8.40
2023-01-28T14:07:35.044Z,8.40
2023-01-28T14:10:28.535Z,8.40
2023-01-28T14:13:01.160Z,8.40
2023-01-28T14:15:34.091Z,8.40
2023-01-28T14:18:01.429Z,8.40
2023-01-28T14:20:39.590Z,8.40
2023-01-28T14:23:14.707Z,8.40
2023-01-28T14:26:01.613Z,8.30
2023-01-28T14:29:00.472Z,8.30
2023-01-28T14:31:36.570Z,8.20
2023-01-28T14:34:32.361Z,8.20
2023-01-28T14:37:07.814Z,8.10
2023-01-28T14:39:47.106Z,8.10
2023-01-28T14:42:23.980Z,8.00
2023-01-28T14:45:34.604Z,8.00
2023-01-28T14:48:25.292Z,8.00
2023-01-28T14:51:31.437Z,7.90
2023-01-28T14:54:26.634Z,5.30
2023-01-28T14:57:09.114Z,7.90
2023-01-28T14:59:44.806Z,7.90
2023-01-28T15:02:20.853Z,7.90
2023-01-28T15:04:47.949Z,7.90
2023-01-28T15:07:24.775Z,7.90
2023-01-28T15:10:15.808Z,7.80
2023-01-28T15:12:49.042Z,7.80
2023-01-28T15:15:25.539Z,7.80
2023-01-28T15:17:53.568Z,7.70
2023-01-28T15:20:23.550Z,7.70
2023-01-28T15:22:52.516Z,7.70
2023-01-28T15:25:22.592Z,7.80
2023-01-28T15:27:52.347Z,7.70
2023-01-28T15:30:30.601Z,7.70
2023-01-28T15:33:13.937Z,7.80
2023-01-28T15:35:50.839Z,7.70
2023-01-28T15:38:18.385Z,7.70
2023-01-28T15:41:05.792Z,7.80
2023-01-28T15:43:38.306Z,7.70
2023-01-28T15:46:12.518Z,7.80
2023-01-28T15:48:44.283Z,7.70
2023-01-28T15:51:25.940Z,7.70
2023-01-28T15:54:14.592Z,7.70
2023-01-28T15:56:41.477Z,7.70
2023-01-28T15:59:16.824Z,7.70
2023-01-28T16:01:44.139Z,4.40
2023-01-28T16:04:24.436Z,7.70
2023-01-28T16:06:52.276Z,7.60
2023-01-28T16:09:31.690Z,7.60
2023-01-28T16:12:04.488Z,7.70
2023-01-28T16:14:40.417Z,7.70
2023-01-28T16:17:08.142Z,7.60
2023-01-28T16:19:42.152Z,7.60
2023-01-28T16:22:20.161Z,7.60
2023-01-28T16:24:52.872Z,8.40
2023-01-28T16:27:29.528Z,7.60
2023-01-28T16:29:56.341Z,7.60
2023-01-28T16:32:36.384Z,7.60
2023-01-28T16:35:05.130Z,7.50
2023-01-28T16:37:31.925Z,7.50
2023-01-28T17:10:20.552Z,5.90
2023-01-28T17:12:50.742Z,6.00
2023-01-28T17:17:48.939Z,6.30
2023-01-28T17:27:37.728Z,6.60
2023-01-28T17:30:05.541Z,6.70
2023-01-28T17:47:15.775Z,6.90
2023-01-28T18:09:21.114Z,7.00
2023-01-28T18:21:54.312Z,7.10
2023-01-28T18:24:27.365Z,7.10
2023-01-28T18:26:58.140Z,7.10
2023-01-28T18:31:55.088Z,7.10
2023-01-28T18:34:24.130Z,7.10
2023-01-28T18:36:51.743Z,7.10
2023-01-28T18:39:20.045Z,7.00
2023-01-28T18:44:16.119Z,7.10
2023-01-28T18:46:42.995Z,7.00
2023-01-28T18:54:09.533Z,7.00
2023-01-28T18:59:07.172Z,7.00
2023-01-28T19:01:35.201Z,7.00
2023-01-28T19:06:30.729Z,7.00
2023-01-28T19:08:59.881Z,7.00
2023-01-28T19:11:29.028Z,6.90
2023-01-28T19:18:59.747Z,7.00
2023-01-28T19:21:28.636Z,7.00
2023-01-28T19:23:58.096Z,7.00
2023-01-28T19:26:26.418Z,7.00
2023-01-28T19:31:22.896Z,7.00
2023-01-28T19:33:57.407Z,6.80
2023-01-28T19:36:26.461Z,7.00
2023-01-28T19:39:01.738Z,7.00
2023-01-28T19:41:29.337Z,7.00
2023-01-28T19:43:57.056Z,7.00
2023-01-28T19:53:49.595Z,7.00
2023-01-28T19:58:46.097Z,6.80
2023-01-28T20:01:19.154Z,7.00
2023-01-28T20:03:49.611Z,7.00
2023-01-28T20:06:17.374Z,6.90
2023-01-28T20:08:45.445Z,7.00
2023-01-28T20:11:15.218Z,6.90
2023-01-28T20:13:44.038Z,6.80
2023-01-28T20:16:25.930Z,6.90
2023-01-28T20:19:07.536Z,7.00
2023-01-28T20:21:35.872Z,6.90
2023-01-28T20:24:03.410Z,6.90
2023-01-28T20:26:36.124Z,7.00
2023-01-28T20:29:09.468Z,6.90
2023-01-28T20:31:37.633Z,6.90
2023-01-28T20:41:28.020Z,6.90
2023-01-28T20:43:55.981Z,6.90
2023-01-28T20:46:25.450Z,6.90
2023-01-28T20:48:54.704Z,6.90
2023-01-28T20:51:24.284Z,6.90
2023-01-28T20:53:51.169Z,6.90
2023-01-28T20:56:20.737Z,6.90
2023-01-28T20:58:49.405Z,6.80
2023-01-28T21:01:18.447Z,6.90
2023-01-28T21:03:45.643Z,6.90
2023-01-28T21:11:08.469Z,6.90
2023-01-28T21:13:36.269Z,6.90
2023-01-28T21:16:04.238Z,6.80
2023-01-28T21:18:30.999Z,6.80
2023-01-28T21:21:06.990Z,6.80
2023-01-28T21:26:03.731Z,6.70
2023-01-28T21:31:06.282Z,6.80
2023-01-28T21:36:00.475Z,6.80
2023-01-28T21:43:22.119Z,6.80
2023-01-28T21:45:55.223Z,6.70
2023-01-28T21:48:21.997Z,6.70
2023-01-28T21:53:41.793Z,6.70
2023-01-28T21:56:09.800Z,6.70
2023-01-28T21:58:56.178Z,6.70
2023-01-28T22:01:23.542Z,6.70
2023-01-28T22:03:50.410Z,6.70
2023-01-28T22:11:12.042Z,6.70
2023-01-28T22:16:06.931Z,6.60
2023-01-28T22:21:03.413Z,6.60
2023-01-28T22:23:30.569Z,6.60
2023-01-28T22:25:58.697Z,6.60
2023-01-28T22:28:26.997Z,6.50
2023-01-28T22:30:54.893Z,6.50
2023-01-28T22:33:22.048Z,6.50
2023-01-28T22:40:44.650Z,6.40
2023-01-28T22:50:33.188Z,6.30
2023-01-28T22:55:27.273Z,6.30
2023-01-28T23:05:16.194Z,6.20
2023-01-28T23:10:11.095Z,6.20
2023-01-28T23:20:58.480Z,6.10
2023-01-28T23:33:33.568Z,6.20
2023-01-28T23:36:00.466Z,6.20
2023-01-28T23:38:27.539Z,6.20
2023-01-28T23:40:54.954Z,6.20
2023-01-28T23:43:22.247Z,6.20
2023-01-28T23:48:16.407Z,6.20
2023-01-28T23:50:43.186Z,6.20
